sensor_id;sensor_type;location;lat;lon;timestamp;temperature;humidity
19449;DHT22;9863;49.404;8.246;2022-11-23T00:00:17;4.00;99.90
19449;DHT22;9863;49.404;8.246;2022-11-23T00:02:44;4.00;99.90
19449;DHT22;9863;49.404;8.246;2022-11-23T00:05:11;3.90;99.90
19449;DHT22;9863;49.404;8.246;2022-11-23T00:07:38;3.90;99.90
19449;DHT22;9863;49.404;8.246;2022-11-23T00:10:06;3.90;99.90
19449;DHT22;9863;49.404;8.246;2022-11-23T00:12:33;3.80;99.90
19449;DHT22;9863;49.404;8.246;2022-11-23T00:15:00;3.80;99.90
19449;DHT22;9863;49.404;8.246;2022-11-23T00:17:27;3.70;99.90
19449;DHT22;9863;49.404;8.246;2022-11-23T00:19:54;3.70;99.90
19449;DHT22;9863;49.404;8.246;2022-11-23T00:22:22;3.70;99.90
19449;DHT22;9863;49.404;8.246;2022-11-23T00:24:50;3.70;99.90
19449;DHT22;9863;49.404;8.246;2022-11-23T00:27:17;3.70;99.90
19449;DHT22;9863;49.404;8.246;2022-11-23T00:29:44;3.60;99.90
19449;DHT22;9863;49.404;8.246;2022-11-23T00:32:11;3.50;99.90
19449;DHT22;9863;49.404;8.246;2022-11-23T00:34:38;3.40;99.90
19449;DHT22;9863;49.404;8.246;2022-11-23T00:37:06;3.40;99.90
19449;DHT22;9863;49.404;8.246;2022-11-23T00:39:33;3.40;99.90
19449;DHT22;9863;49.404;8.246;2022-11-23T00:42:00;3.30;99.90
19449;DHT22;9863;49.404;8.246;2022-11-23T00:44:27;3.30;99.90
19449;DHT22;9863;49.404;8.246;2022-11-23T00:46:55;3.20;99.90
19449;DHT22;9863;49.404;8.246;2022-11-23T00:49:22;3.20;99.90
19449;DHT22;9863;49.404;8.246;2022-11-23T00:51:49;3.10;99.90
19449;DHT22;9863;49.404;8.246;2022-11-23T00:54:16;3.00;99.90
19449;DHT22;9863;49.404;8.246;2022-11-23T00:56:43;3.00;99.90
19449;DHT22;9863;49.404;8.246;2022-11-23T00:59:10;2.90;99.90
19449;DHT22;9863;49.404;8.246;2022-11-23T01:01:38;2.90;99.90
19449;DHT22;9863;49.404;8.246;2022-11-23T01:04:07;3.10;99.90
19449;DHT22;9863;49.404;8.246;2022-11-23T01:06:37;3.00;99.90
19449;DHT22;9863;49.404;8.246;2022-11-23T01:09:14;3.10;99.90
19449;DHT22;9863;49.404;8.246;2022-11-23T01:11:44;3.10;99.90
19449;DHT22;9863;49.404;8.246;2022-11-23T01:14:11;3.20;99.90
19449;DHT22;9863;49.404;8.246;2022-11-23T01:16:39;3.40;99.90
19449;DHT22;9863;49.404;8.246;2022-11-23T01:19:10;3.50;99.90
19449;DHT22;9863;49.404;8.246;2022-11-23T01:21:38;3.50;99.90
19449;DHT22;9863;49.404;8.246;2022-11-23T01:24:19;3.60;99.90
19449;DHT22;9863;49.404;8.246;2022-11-23T01:26:51;4.30;99.90
19449;DHT22;9863;49.404;8.246;2022-11-23T01:29:19;3.80;99.90
19449;DHT22;9863;49.404;8.246;2022-11-23T01:31:47;3.90;99.90
19449;DHT22;9863;49.404;8.246;2022-11-23T01:34:15;4.20;99.90
19449;DHT22;9863;49.404;8.246;2022-11-23T01:36:42;4.10;99.90
19449;DHT22;9863;49.404;8.246;2022-11-23T01:39:11;4.20;99.90
19449;DHT22;9863;49.404;8.246;2022-11-23T01:41:40;4.40;99.90
19449;DHT22;9863;49.404;8.246;2022-11-23T01:44:28;4.60;99.90
19449;DHT22;9863;49.404;8.246;2022-11-23T01:46:59;4.50;99.90
19449;DHT22;9863;49.404;8.246;2022-11-23T01:49:32;4.60;99.90
19449;DHT22;9863;49.404;8.246;2022-11-23T01:52:13;4.60;99.90
19449;DHT22;9863;49.404;8.246;2022-11-23T01:54:50;4.70;99.90
19449;DHT22;9863;49.404;8.246;2022-11-23T01:57:28;4.70;99.90
19449;DHT22;9863;49.404;8.246;2022-11-23T01:59:59;4.70;99.90
19449;DHT22;9863;49.404;8.246;2022-11-23T02:02:27;4.70;99.90
19449;DHT22;9863;49.404;8.246;2022-11-23T02:04:56;4.70;99.90
19449;DHT22;9863;49.404;8.246;2022-11-23T02:07:28;4.80;99.90
19449;DHT22;9863;49.404;8.246;2022-11-23T02:09:57;4.80;99.90
19449;DHT22;9863;49.404;8.246;2022-11-23T02:12:25;4.80;99.90
19449;DHT22;9863;49.404;8.246;2022-11-23T02:14:53;4.90;99.90
19449;DHT22;9863;49.404;8.246;2022-11-23T02:17:20;4.90;99.90
19449;DHT22;9863;49.404;8.246;2022-11-23T02:28:14;5.00;99.90
19449;DHT22;9863;49.404;8.246;2022-11-23T02:30:44;5.00;99.90
19449;DHT22;9863;49.404;8.246;2022-11-23T02:33:13;5.10;99.90
19449;DHT22;9863;49.404;8.246;2022-11-23T02:35:58;5.00;99.90
19449;DHT22;9863;49.404;8.246;2022-11-23T02:38:30;5.10;99.90
19449;DHT22;9863;49.404;8.246;2022-11-23T02:40:59;5.10;99.90
19449;DHT22;9863;49.404;8.246;2022-11-23T02:43:26;5.10;99.90
19449;DHT22;9863;49.404;8.246;2022-11-23T02:45:55;5.10;99.90
19449;DHT22;9863;49.404;8.246;2022-11-23T02:48:24;5.20;99.90
19449;DHT22;9863;49.404;8.246;2022-11-23T02:50:52;5.20;99.90
19449;DHT22;9863;49.404;8.246;2022-11-23T02:53:19;5.20;99.90
19449;DHT22;9863;49.404;8.246;2022-11-23T02:55:46;5.20;99.90
19449;DHT22;9863;49.404;8.246;2022-11-23T02:58:13;5.20;99.90
19449;DHT22;9863;49.404;8.246;2022-11-23T03:00:40;5.30;99.90
19449;DHT22;9863;49.404;8.246;2022-11-23T03:03:08;5.30;99.90
19449;DHT22;9863;49.404;8.246;2022-11-23T03:05:35;5.30;99.90
19449;DHT22;9863;49.404;8.246;2022-11-23T03:08:02;5.30;99.90
19449;DHT22;9863;49.404;8.246;2022-11-23T03:10:29;5.30;99.90
19449;DHT22;9863;49.404;8.246;2022-11-23T03:12:56;5.30;99.90
19449;DHT22;9863;49.404;8.246;2022-11-23T03:15:24;5.30;99.90
19449;DHT22;9863;49.404;8.246;2022-11-23T03:17:51;5.40;99.90
19449;DHT22;9863;49.404;8.246;2022-11-23T03:20:18;5.50;99.90
19449;DHT22;9863;49.404;8.246;2022-11-23T03:22:45;5.30;99.90
19449;DHT22;9863;49.404;8.246;2022-11-23T03:25:13;5.30;99.90
19449;DHT22;9863;49.404;8.246;2022-11-23T03:27:40;5.40;99.90
19449;DHT22;9863;49.404;8.246;2022-11-23T03:30:08;5.30;99.90
19449;DHT22;9863;49.404;8.246;2022-11-23T03:32:35;5.30;99.90
19449;DHT22;9863;49.404;8.246;2022-11-23T03:35:03;5.30;99.90
19449;DHT22;9863;49.404;8.246;2022-11-23T03:37:31;5.30;99.90
19449;DHT22;9863;49.404;8.246;2022-11-23T03:39:58;5.30;99.90
19449;DHT22;9863;49.404;8.246;2022-11-23T03:42:25;5.20;99.90
19449;DHT22;9863;49.404;8.246;2022-11-23T03:44:52;5.20;99.90
19449;DHT22;9863;49.404;8.246;2022-11-23T03:47:19;5.20;99.90
19449;DHT22;9863;49.404;8.246;2022-11-23T03:52:14;5.20;99.90
19449;DHT22;9863;49.404;8.246;2022-11-23T03:54:41;5.20;99.90
19449;DHT22;9863;49.404;8.246;2022-11-23T03:57:08;5.20;99.90
19449;DHT22;9863;49.404;8.246;2022-11-23T03:59:35;5.20;99.90
19449;DHT22;9863;49.404;8.246;2022-11-23T04:02:02;5.20;99.90
19449;DHT22;9863;49.404;8.246;2022-11-23T04:04:29;5.20;99.90
19449;DHT22;9863;49.404;8.246;2022-11-23T04:06:56;5.20;99.90
19449;DHT22;9863;49.404;8.246;2022-11-23T04:09:23;5.30;99.90
19449;DHT22;9863;49.404;8.246;2022-11-23T04:11:50;5.20;99.90
19449;DHT22;9863;49.404;8.246;2022-11-23T04:14:17;5.20;99.90
19449;DHT22;9863;49.404;8.246;2022-11-23T04:16:44;5.20;99.90
19449;DHT22;9863;49.404;8.246;2022-11-23T04:19:11;5.30;99.90
19449;DHT22;9863;49.404;8.246;2022-11-23T04:21:38;5.30;99.90
19449;DHT22;9863;49.404;8.246;2022-11-23T04:24:05;5.30;99.90
19449;DHT22;9863;49.404;8.246;2022-11-23T04:26:32;5.30;99.90
19449;DHT22;9863;49.404;8.246;2022-11-23T04:29:00;5.20;99.90
19449;DHT22;9863;49.404;8.246;2022-11-23T04:31:27;5.20;99.90
19449;DHT22;9863;49.404;8.246;2022-11-23T04:33:54;5.20;99.90
19449;DHT22;9863;49.404;8.246;2022-11-23T04:36:23;5.10;99.90
19449;DHT22;9863;49.404;8.246;2022-11-23T04:38:50;5.20;99.90
19449;DHT22;9863;49.404;8.246;2022-11-23T04:41:17;5.20;99.90
19449;DHT22;9863;49.404;8.246;2022-11-23T04:43:46;5.20;99.90
19449;DHT22;9863;49.404;8.246;2022-11-23T04:46:13;5.20;99.90
19449;DHT22;9863;49.404;8.246;2022-11-23T04:48:40;5.20;99.90
19449;DHT22;9863;49.404;8.246;2022-11-23T04:51:07;5.20;99.90
19449;DHT22;9863;49.404;8.246;2022-11-23T04:53:35;5.10;99.90
19449;DHT22;9863;49.404;8.246;2022-11-23T04:56:02;5.10;99.90
19449;DHT22;9863;49.404;8.246;2022-11-23T04:58:29;5.10;99.90
19449;DHT22;9863;49.404;8.246;2022-11-23T05:01:00;5.10;99.90
19449;DHT22;9863;49.404;8.246;2022-11-23T05:03:27;5.20;99.90
19449;DHT22;9863;49.404;8.246;2022-11-23T05:05:57;5.20;99.90
19449;DHT22;9863;49.404;8.246;2022-11-23T05:08:24;5.30;99.90
19449;DHT22;9863;49.404;8.246;2022-11-23T05:10:51;5.30;99.90
19449;DHT22;9863;49.404;8.246;2022-11-23T05:13:18;5.30;99.90
19449;DHT22;9863;49.404;8.246;2022-11-23T05:15:45;5.30;99.90
19449;DHT22;9863;49.404;8.246;2022-11-23T05:18:12;5.30;99.90
19449;DHT22;9863;49.404;8.246;2022-11-23T05:20:39;5.30;99.90
19449;DHT22;9863;49.404;8.246;2022-11-23T05:23:08;5.30;99.90
19449;DHT22;9863;49.404;8.246;2022-11-23T05:25:35;5.30;99.90
19449;DHT22;9863;49.404;8.246;2022-11-23T05:28:02;5.20;99.90
19449;DHT22;9863;49.404;8.246;2022-11-23T05:30:50;5.20;99.90
19449;DHT22;9863;49.404;8.246;2022-11-23T05:33:17;5.20;99.90
19449;DHT22;9863;49.404;8.246;2022-11-23T05:35:44;5.20;99.90
19449;DHT22;9863;49.404;8.246;2022-11-23T05:38:11;5.20;99.90
19449;DHT22;9863;49.404;8.246;2022-11-23T05:40:38;5.10;99.90
19449;DHT22;9863;49.404;8.246;2022-11-23T05:43:05;5.20;99.90
19449;DHT22;9863;49.404;8.246;2022-11-23T05:45:32;5.20;99.90
19449;DHT22;9863;49.404;8.246;2022-11-23T05:47:59;5.10;99.90
19449;DHT22;9863;49.404;8.246;2022-11-23T05:50:27;5.10;99.90
19449;DHT22;9863;49.404;8.246;2022-11-23T05:52:56;5.00;99.90
19449;DHT22;9863;49.404;8.246;2022-11-23T05:55:24;5.10;99.90
19449;DHT22;9863;49.404;8.246;2022-11-23T05:57:52;5.00;99.90
19449;DHT22;9863;49.404;8.246;2022-11-23T06:00:19;5.00;99.90
19449;DHT22;9863;49.404;8.246;2022-11-23T06:02:47;5.00;99.90
19449;DHT22;9863;49.404;8.246;2022-11-23T06:05:14;4.90;99.90
19449;DHT22;9863;49.404;8.246;2022-11-23T06:07:41;5.00;99.90
19449;DHT22;9863;49.404;8.246;2022-11-23T06:10:10;5.00;99.90
19449;DHT22;9863;49.404;8.246;2022-11-23T06:12:38;5.10;99.90
19449;DHT22;9863;49.404;8.246;2022-11-23T06:15:06;5.00;99.90
19449;DHT22;9863;49.404;8.246;2022-11-23T06:17:34;5.00;99.90
19449;DHT22;9863;49.404;8.246;2022-11-23T06:20:01;5.00;99.90
19449;DHT22;9863;49.404;8.246;2022-11-23T06:22:30;4.90;99.90
19449;DHT22;9863;49.404;8.246;2022-11-23T06:24:57;4.80;99.90
19449;DHT22;9863;49.404;8.246;2022-11-23T06:27:24;4.60;99.90
19449;DHT22;9863;49.404;8.246;2022-11-23T06:29:51;4.80;99.90
19449;DHT22;9863;49.404;8.246;2022-11-23T06:32:18;4.60;99.90
19449;DHT22;9863;49.404;8.246;2022-11-23T06:34:45;4.70;99.90
19449;DHT22;9863;49.404;8.246;2022-11-23T06:37:12;4.50;99.90
19449;DHT22;9863;49.404;8.246;2022-11-23T06:39:39;4.50;99.90
19449;DHT22;9863;49.404;8.246;2022-11-23T06:42:06;4.50;99.90
19449;DHT22;9863;49.404;8.246;2022-11-23T06:44:53;4.40;99.90
19449;DHT22;9863;49.404;8.246;2022-11-23T06:47:20;4.50;99.90
19449;DHT22;9863;49.404;8.246;2022-11-23T06:49:51;4.40;99.90
19449;DHT22;9863;49.404;8.246;2022-11-23T06:52:18;4.40;99.90
19449;DHT22;9863;49.404;8.246;2022-11-23T06:54:46;4.40;99.90
19449;DHT22;9863;49.404;8.246;2022-11-23T06:57:13;4.30;99.90
19449;DHT22;9863;49.404;8.246;2022-11-23T06:59:40;4.20;99.90
19449;DHT22;9863;49.404;8.246;2022-11-23T07:02:11;4.20;99.90
19449;DHT22;9863;49.404;8.246;2022-11-23T07:04:38;4.20;99.90
19449;DHT22;9863;49.404;8.246;2022-11-23T07:07:08;4.20;99.90
19449;DHT22;9863;49.404;8.246;2022-11-23T07:09:35;4.10;99.90
19449;DHT22;9863;49.404;8.246;2022-11-23T07:12:02;4.10;99.90
19449;DHT22;9863;49.404;8.246;2022-11-23T07:14:29;4.10;99.90
19449;DHT22;9863;49.404;8.246;2022-11-23T07:16:56;4.10;99.90
19449;DHT22;9863;49.404;8.246;2022-11-23T07:19:23;4.00;99.90
19449;DHT22;9863;49.404;8.246;2022-11-23T07:21:50;4.00;99.90
19449;DHT22;9863;49.404;8.246;2022-11-23T07:24:17;4.00;99.90
19449;DHT22;9863;49.404;8.246;2022-11-23T07:26:44;3.80;99.90
19449;DHT22;9863;49.404;8.246;2022-11-23T07:29:11;3.90;99.90
19449;DHT22;9863;49.404;8.246;2022-11-23T07:31:38;4.00;99.90
19449;DHT22;9863;49.404;8.246;2022-11-23T07:34:05;4.10;99.90
19449;DHT22;9863;49.404;8.246;2022-11-23T07:36:34;4.00;99.90
19449;DHT22;9863;49.404;8.246;2022-11-23T07:39:02;4.00;99.90
19449;DHT22;9863;49.404;8.246;2022-11-23T07:41:29;4.00;99.90
19449;DHT22;9863;49.404;8.246;2022-11-23T07:43:56;4.00;99.90
19449;DHT22;9863;49.404;8.246;2022-11-23T07:46:23;4.10;99.90
19449;DHT22;9863;49.404;8.246;2022-11-23T07:48:50;4.00;99.90
19449;DHT22;9863;49.404;8.246;2022-11-23T07:51:20;4.00;99.90
19449;DHT22;9863;49.404;8.246;2022-11-23T07:53:47;4.00;99.90
19449;DHT22;9863;49.404;8.246;2022-11-23T07:56:14;4.10;99.90
19449;DHT22;9863;49.404;8.246;2022-11-23T07:58:41;4.30;99.90
19449;DHT22;9863;49.404;8.246;2022-11-23T08:01:08;4.20;99.90
19449;DHT22;9863;49.404;8.246;2022-11-23T08:03:35;4.20;99.90
19449;DHT22;9863;49.404;8.246;2022-11-23T08:06:02;4.40;99.90
19449;DHT22;9863;49.404;8.246;2022-11-23T08:08:29;4.40;99.90
19449;DHT22;9863;49.404;8.246;2022-11-23T08:10:56;4.40;99.90
19449;DHT22;9863;49.404;8.246;2022-11-23T08:13:23;4.40;99.90
19449;DHT22;9863;49.404;8.246;2022-11-23T08:15:50;4.50;99.90
19449;DHT22;9863;49.404;8.246;2022-11-23T08:18:24;4.40;99.90
19449;DHT22;9863;49.404;8.246;2022-11-23T08:20:52;4.50;99.90
19449;DHT22;9863;49.404;8.246;2022-11-23T08:23:19;4.60;99.90
19449;DHT22;9863;49.404;8.246;2022-11-23T08:25:47;4.70;99.90
19449;DHT22;9863;49.404;8.246;2022-11-23T08:28:14;4.90;99.90
19449;DHT22;9863;49.404;8.246;2022-11-23T08:30:41;5.10;99.90
19449;DHT22;9863;49.404;8.246;2022-11-23T08:33:08;5.20;99.90
19449;DHT22;9863;49.404;8.246;2022-11-23T08:35:36;5.40;99.90
19449;DHT22;9863;49.404;8.246;2022-11-23T08:38:05;5.40;99.90
19449;DHT22;9863;49.404;8.246;2022-11-23T08:40:34;5.50;99.90
19449;DHT22;9863;49.404;8.246;2022-11-23T08:43:01;5.60;99.90
19449;DHT22;9863;49.404;8.246;2022-11-23T08:45:28;5.60;99.90
19449;DHT22;9863;49.404;8.246;2022-11-23T08:48:02;5.70;99.90
19449;DHT22;9863;49.404;8.246;2022-11-23T08:50:30;5.70;99.90
19449;DHT22;9863;49.404;8.246;2022-11-23T08:52:58;5.80;99.90
19449;DHT22;9863;49.404;8.246;2022-11-23T08:55:27;5.80;99.90
19449;DHT22;9863;49.404;8.246;2022-11-23T08:57:55;5.90;99.90
19449;DHT22;9863;49.404;8.246;2022-11-23T09:00:26;6.00;99.90
19449;DHT22;9863;49.404;8.246;2022-11-23T09:02:54;6.00;99.90
19449;DHT22;9863;49.404;8.246;2022-11-23T09:05:25;6.00;99.90
19449;DHT22;9863;49.404;8.246;2022-11-23T09:07:52;6.20;99.90
19449;DHT22;9863;49.404;8.246;2022-11-23T09:10:20;6.20;99.90
19449;DHT22;9863;49.404;8.246;2022-11-23T09:12:47;6.30;99.90
19449;DHT22;9863;49.404;8.246;2022-11-23T09:15:15;6.30;99.90
19449;DHT22;9863;49.404;8.246;2022-11-23T09:17:42;6.30;99.90
19449;DHT22;9863;49.404;8.246;2022-11-23T09:20:10;6.40;99.90
19449;DHT22;9863;49.404;8.246;2022-11-23T09:22:38;6.50;99.90
19449;DHT22;9863;49.404;8.246;2022-11-23T09:25:05;6.50;99.90
19449;DHT22;9863;49.404;8.246;2022-11-23T09:27:33;6.50;99.90
19449;DHT22;9863;49.404;8.246;2022-11-23T09:30:00;6.60;99.90
19449;DHT22;9863;49.404;8.246;2022-11-23T09:32:27;6.60;99.90
19449;DHT22;9863;49.404;8.246;2022-11-23T09:34:54;6.70;99.90
19449;DHT22;9863;49.404;8.246;2022-11-23T09:37:21;6.80;99.90
19449;DHT22;9863;49.404;8.246;2022-11-23T09:39:48;6.90;99.90
19449;DHT22;9863;49.404;8.246;2022-11-23T09:42:28;7.10;99.90
19449;DHT22;9863;49.404;8.246;2022-11-23T09:45:33;7.10;99.90
19449;DHT22;9863;49.404;8.246;2022-11-23T09:51:19;7.10;99.90
19449;DHT22;9863;49.404;8.246;2022-11-23T09:54:03;7.20;99.90
19449;DHT22;9863;49.404;8.246;2022-11-23T09:56:36;7.20;99.90
19449;DHT22;9863;49.404;8.246;2022-11-23T09:59:40;7.30;99.90
19449;DHT22;9863;49.404;8.246;2022-11-23T10:02:22;7.30;99.90
19449;DHT22;9863;49.404;8.246;2022-11-23T10:04:51;7.40;99.90
19449;DHT22;9863;49.404;8.246;2022-11-23T10:13:40;7.70;99.90
19449;DHT22;9863;49.404;8.246;2022-11-23T10:22:04;7.90;99.90
19449;DHT22;9863;49.404;8.246;2022-11-23T10:24:44;8.00;99.90
19449;DHT22;9863;49.404;8.246;2022-11-23T10:27:17;8.00;99.90
19449;DHT22;9863;49.404;8.246;2022-11-23T10:29:49;8.10;99.90
19449;DHT22;9863;49.404;8.246;2022-11-23T10:32:32;8.20;99.90
19449;DHT22;9863;49.404;8.246;2022-11-23T10:35:11;8.20;99.90
19449;DHT22;9863;49.404;8.246;2022-11-23T10:37:39;8.40;99.90
19449;DHT22;9863;49.404;8.246;2022-11-23T10:40:20;8.40;99.90
19449;DHT22;9863;49.404;8.246;2022-11-23T10:43:00;8.50;99.90
19449;DHT22;9863;49.404;8.246;2022-11-23T10:45:28;8.60;99.90
19449;DHT22;9863;49.404;8.246;2022-11-23T10:47:58;8.60;99.90
19449;DHT22;9863;49.404;8.246;2022-11-23T10:50:34;8.60;99.90
19449;DHT22;9863;49.404;8.246;2022-11-23T10:53:22;8.80;99.90
19449;DHT22;9863;49.404;8.246;2022-11-23T10:55:56;8.80;99.90
19449;DHT22;9863;49.404;8.246;2022-11-23T10:58:33;8.80;99.90
19449;DHT22;9863;49.404;8.246;2022-11-23T11:03:42;8.90;99.90
19449;DHT22;9863;49.404;8.246;2022-11-23T11:06:09;9.00;99.90
19449;DHT22;9863;49.404;8.246;2022-11-23T11:08:57;9.10;99.90
19449;DHT22;9863;49.404;8.246;2022-11-23T11:11:35;9.10;99.90
19449;DHT22;9863;49.404;8.246;2022-11-23T11:16:54;9.20;99.90
19449;DHT22;9863;49.404;8.246;2022-11-23T11:19:35;9.30;99.90
19449;DHT22;9863;49.404;8.246;2022-11-23T11:22:33;9.30;99.90
19449;DHT22;9863;49.404;8.246;2022-11-23T11:25:04;9.40;99.90
19449;DHT22;9863;49.404;8.246;2022-11-23T11:27:36;9.50;99.90
19449;DHT22;9863;49.404;8.246;2022-11-23T11:30:04;9.50;99.90
19449;DHT22;9863;49.404;8.246;2022-11-23T11:32:44;9.50;99.90
19449;DHT22;9863;49.404;8.246;2022-11-23T11:35:50;9.50;99.90
19449;DHT22;9863;49.404;8.246;2022-11-23T11:38:29;9.70;99.90
19449;DHT22;9863;49.404;8.246;2022-11-23T11:41:04;9.70;99.90
19449;DHT22;9863;49.404;8.246;2022-11-23T11:43:47;9.80;99.90
19449;DHT22;9863;49.404;8.246;2022-11-23T11:46:24;9.80;99.90
19449;DHT22;9863;49.404;8.246;2022-11-23T11:49:12;9.80;99.90
19449;DHT22;9863;49.404;8.246;2022-11-23T11:52:10;9.70;99.90
19449;DHT22;9863;49.404;8.246;2022-11-23T11:55:00;9.80;99.90
19449;DHT22;9863;49.404;8.246;2022-11-23T11:57:48;9.90;99.90
19449;DHT22;9863;49.404;8.246;2022-11-23T12:00:19;9.90;99.90
19449;DHT22;9863;49.404;8.246;2022-11-23T12:05:48;10.00;99.90
19449;DHT22;9863;49.404;8.246;2022-11-23T12:08:45;10.10;99.90
19449;DHT22;9863;49.404;8.246;2022-11-23T12:11:16;10.00;99.90
19449;DHT22;9863;49.404;8.246;2022-11-23T12:13:45;10.20;99.90
19449;DHT22;9863;49.404;8.246;2022-11-23T12:32:07;10.70;99.90
19449;DHT22;9863;49.404;8.246;2022-11-23T12:43:49;10.80;99.90
19449;DHT22;9863;49.404;8.246;2022-11-23T12:58:35;10.80;99.90
19449;DHT22;9863;49.404;8.246;2022-11-23T13:10:01;11.00;99.90
19449;DHT22;9863;49.404;8.246;2022-11-23T13:12:57;11.00;99.90
19449;DHT22;9863;49.404;8.246;2022-11-23T13:21:19;10.80;99.90
19449;DHT22;9863;49.404;8.246;2022-11-23T13:23:52;10.90;99.90
19449;DHT22;9863;49.404;8.246;2022-11-23T13:26:23;11.00;99.90
19449;DHT22;9863;49.404;8.246;2022-11-23T13:28:52;11.00;99.90
19449;DHT22;9863;49.404;8.246;2022-11-23T13:34:01;11.00;99.90
19449;DHT22;9863;49.404;8.246;2022-11-23T13:36:35;11.00;99.90
19449;DHT22;9863;49.404;8.246;2022-11-23T13:42:14;11.00;99.90
19449;DHT22;9863;49.404;8.246;2022-11-23T13:44:42;11.00;99.90
19449;DHT22;9863;49.404;8.246;2022-11-23T13:49:45;11.00;99.90
19449;DHT22;9863;49.404;8.246;2022-11-23T13:57:41;10.80;99.90
19449;DHT22;9863;49.404;8.246;2022-11-23T14:03:47;11.00;99.90
19449;DHT22;9863;49.404;8.246;2022-11-23T14:09:22;10.80;99.90
19449;DHT22;9863;49.404;8.246;2022-11-23T14:11:58;10.90;99.90
19449;DHT22;9863;49.404;8.246;2022-11-23T14:14:35;10.80;99.90
19449;DHT22;9863;49.404;8.246;2022-11-23T14:20:07;10.70;99.90
19449;DHT22;9863;49.404;8.246;2022-11-23T14:34:26;9.90;99.90
19449;DHT22;9863;49.404;8.246;2022-11-23T14:37:24;9.80;99.90
19449;DHT22;9863;49.404;8.246;2022-11-23T14:40:27;9.70;99.90
19449;DHT22;9863;49.404;8.246;2022-11-23T14:43:15;9.60;99.90
19449;DHT22;9863;49.404;8.246;2022-11-23T14:45:47;9.50;99.90
19449;DHT22;9863;49.404;8.246;2022-11-23T14:48:27;9.40;99.90
19449;DHT22;9863;49.404;8.246;2022-11-23T14:51:04;9.30;99.90
19449;DHT22;9863;49.404;8.246;2022-11-23T14:53:39;9.20;99.90
19449;DHT22;9863;49.404;8.246;2022-11-23T14:56:26;9.10;99.90
19449;DHT22;9863;49.404;8.246;2022-11-23T14:59:09;9.00;99.90
19449;DHT22;9863;49.404;8.246;2022-11-23T15:01:51;9.00;99.90
19449;DHT22;9863;49.404;8.246;2022-11-23T15:08:13;8.90;99.90
19449;DHT22;9863;49.404;8.246;2022-11-23T15:10:42;8.90;99.90
19449;DHT22;9863;49.404;8.246;2022-11-23T15:13:24;8.90;99.90
19449;DHT22;9863;49.404;8.246;2022-11-23T15:15:56;8.80;99.90
19449;DHT22;9863;49.404;8.246;2022-11-23T15:18:35;8.80;99.90
19449;DHT22;9863;49.404;8.246;2022-11-23T15:23:49;8.70;99.90
19449;DHT22;9863;49.404;8.246;2022-11-23T15:26:20;8.70;99.90
19449;DHT22;9863;49.404;8.246;2022-11-23T15:29:32;8.70;99.90
19449;DHT22;9863;49.404;8.246;2022-11-23T15:32:40;8.80;99.90
19449;DHT22;9863;49.404;8.246;2022-11-23T15:35:16;8.70;99.90
19449;DHT22;9863;49.404;8.246;2022-11-23T15:37:48;8.60;99.90
19449;DHT22;9863;49.404;8.246;2022-11-23T15:40:17;8.60;99.90
19449;DHT22;9863;49.404;8.246;2022-11-23T15:42:47;8.60;99.90
19449;DHT22;9863;49.404;8.246;2022-11-23T15:45:41;8.70;99.90
19449;DHT22;9863;49.404;8.246;2022-11-23T15:48:31;8.70;99.90
19449;DHT22;9863;49.404;8.246;2022-11-23T15:51:05;8.60;99.90
19449;DHT22;9863;49.404;8.246;2022-11-23T15:53:49;8.40;99.90
19449;DHT22;9863;49.404;8.246;2022-11-23T15:59:01;8.30;99.90
19449;DHT22;9863;49.404;8.246;2022-11-23T16:01:30;8.30;99.90
19449;DHT22;9863;49.404;8.246;2022-11-23T16:04:05;8.30;99.90
19449;DHT22;9863;49.404;8.246;2022-11-23T16:06:51;8.30;99.90
19449;DHT22;9863;49.404;8.246;2022-11-23T16:09:41;8.40;99.90
19449;DHT22;9863;49.404;8.246;2022-11-23T16:12:45;8.40;99.90
19449;DHT22;9863;49.404;8.246;2022-11-23T16:18:19;8.20;99.90
19449;DHT22;9863;49.404;8.246;2022-11-23T16:21:01;8.20;99.90
19449;DHT22;9863;49.404;8.246;2022-11-23T16:23:41;8.10;99.90
19449;DHT22;9863;49.404;8.246;2022-11-23T16:26:12;8.10;99.90
19449;DHT22;9863;49.404;8.246;2022-11-23T16:28:49;8.00;99.90
19449;DHT22;9863;49.404;8.246;2022-11-23T16:33:57;7.90;99.90
19449;DHT22;9863;49.404;8.246;2022-11-23T16:36:27;7.90;99.90
19449;DHT22;9863;49.404;8.246;2022-11-23T16:38:55;7.80;99.90
19449;DHT22;9863;49.404;8.246;2022-11-23T16:41:29;7.80;99.90
19449;DHT22;9863;49.404;8.246;2022-11-23T16:43:57;7.80;99.90
19449;DHT22;9863;49.404;8.246;2022-11-23T16:46:25;7.90;99.90
19449;DHT22;9863;49.404;8.246;2022-11-23T16:48:52;7.80;99.90
19449;DHT22;9863;49.404;8.246;2022-11-23T16:51:21;7.80;99.90
19449;DHT22;9863;49.404;8.246;2022-11-23T16:53:49;7.80;99.90
19449;DHT22;9863;49.404;8.246;2022-11-23T16:56:36;7.80;99.90
19449;DHT22;9863;49.404;8.246;2022-11-23T16:59:04;7.80;99.90
19449;DHT22;9863;49.404;8.246;2022-11-23T17:01:32;7.80;99.90
19449;DHT22;9863;49.404;8.246;2022-11-23T17:04:02;7.80;99.90
19449;DHT22;9863;49.404;8.246;2022-11-23T17:06:30;7.70;99.90
19449;DHT22;9863;49.404;8.246;2022-11-23T17:09:00;7.60;99.90
19449;DHT22;9863;49.404;8.246;2022-11-23T17:11:37;7.60;99.90
19449;DHT22;9863;49.404;8.246;2022-11-23T17:14:13;7.50;99.90
19449;DHT22;9863;49.404;8.246;2022-11-23T17:16:45;7.40;99.90
19449;DHT22;9863;49.404;8.246;2022-11-23T17:19:20;7.40;99.90
19449;DHT22;9863;49.404;8.246;2022-11-23T17:21:49;7.40;99.90
19449;DHT22;9863;49.404;8.246;2022-11-23T17:24:16;7.40;99.90
19449;DHT22;9863;49.404;8.246;2022-11-23T17:26:47;7.30;99.90
19449;DHT22;9863;49.404;8.246;2022-11-23T17:29:19;7.30;99.90
19449;DHT22;9863;49.404;8.246;2022-11-23T17:31:48;7.20;99.90
19449;DHT22;9863;49.404;8.246;2022-11-23T17:34:17;7.20;99.90
19449;DHT22;9863;49.404;8.246;2022-11-23T17:36:46;7.20;99.90
19449;DHT22;9863;49.404;8.246;2022-11-23T17:39:22;7.20;99.90
19449;DHT22;9863;49.404;8.246;2022-11-23T17:41:50;7.20;99.90
19449;DHT22;9863;49.404;8.246;2022-11-23T17:44:17;7.20;99.90
19449;DHT22;9863;49.404;8.246;2022-11-23T17:46:46;7.10;99.90
19449;DHT22;9863;49.404;8.246;2022-11-23T17:49:14;7.20;99.90
19449;DHT22;9863;49.404;8.246;2022-11-23T17:51:45;7.10;99.90
19449;DHT22;9863;49.404;8.246;2022-11-23T17:54:13;7.10;99.90
19449;DHT22;9863;49.404;8.246;2022-11-23T17:56:43;7.10;99.90
19449;DHT22;9863;49.404;8.246;2022-11-23T17:59:11;7.10;99.90
19449;DHT22;9863;49.404;8.246;2022-11-23T18:01:39;7.10;99.90
19449;DHT22;9863;49.404;8.246;2022-11-23T18:04:07;7.10;99.90
19449;DHT22;9863;49.404;8.246;2022-11-23T18:06:34;7.10;99.90
19449;DHT22;9863;49.404;8.246;2022-11-23T18:09:03;7.20;99.90
19449;DHT22;9863;49.404;8.246;2022-11-23T18:11:36;7.10;99.90
19449;DHT22;9863;49.404;8.246;2022-11-23T18:14:04;7.10;99.90
19449;DHT22;9863;49.404;8.246;2022-11-23T18:16:31;7.10;99.90
19449;DHT22;9863;49.404;8.246;2022-11-23T18:18:58;7.10;99.90
19449;DHT22;9863;49.404;8.246;2022-11-23T18:21:25;7.10;99.90
19449;DHT22;9863;49.404;8.246;2022-11-23T18:23:56;7.10;99.90
19449;DHT22;9863;49.404;8.246;2022-11-23T18:26:29;7.10;99.90
19449;DHT22;9863;49.404;8.246;2022-11-23T18:28:57;6.60;99.90
19449;DHT22;9863;49.404;8.246;2022-11-23T18:31:24;7.10;99.90
19449;DHT22;9863;49.404;8.246;2022-11-23T18:33:52;7.10;99.90
19449;DHT22;9863;49.404;8.246;2022-11-23T18:36:19;7.10;99.90
19449;DHT22;9863;49.404;8.246;2022-11-23T18:38:47;7.10;99.90
19449;DHT22;9863;49.404;8.246;2022-11-23T18:41:15;7.10;99.90